Nain Airport

Airport
ICAO code: 
CYDP
IATA Code: 
YDP
Summary
ICAO Region: 
NAM
Territory: 
Location: 
Nain, Newfoundland and Labrador,
Serving: 
Nain
Coordinates: 
Aerial View: 
56° 33' 0.367" N, 61° 41' 0.866" W
Metar
Observation
CYDP 271000Z 32005KT 4SM -DZ BR OVC004 01/01 A2939 RMK ST8 SLP953
Station
Nain, Nfld
Date/Time
2021-11-27 10:00:00
Wind direction
320°
Wind speed
05 kts
Lowest cloud amount
overcast
Temperature
1°C
Dew point
1°C
Humidity
100%
Weather condition
light

Description

Nain Airport is located on the shore of Unity Bay near Nain, Newfoundland and Labrador, Canada

Climatology

Newfoundland and Labrador is home to a variety of climates and weather. One of the main reasons for this diversity is the geography of the province. The island portion of the province spans 5 degrees of latitude, which is comparable to that of the Great Lakes. The province has been divided into six climate types, but in broader terms Newfoundland has a cool summer subtype of a humid continental climate, which is greatly influenced by the sea since no part of the island is more than 100 km from the ocean. Northern Labrador is classified as a polar tundra climate, southern Labrador has a subarctic climate.

Runways

Designator Length Width Surface Rops
6/24 610 23 GRAVEL No/No
Airport map: 
Aerial View: 

SKYbrary Partners:

Safety knowledge contributed by: